sensor_id;sensor_type;location;lat;lon;timestamp;temperature;humidity
35129;DHT22;21301;43.626;10.580;2022-12-18T00:01:18;9.80;99.90
35129;DHT22;21301;43.626;10.580;2022-12-18T00:03:44;9.80;99.90
35129;DHT22;21301;43.626;10.580;2022-12-18T00:06:10;9.80;99.90
35129;DHT22;21301;43.626;10.580;2022-12-18T00:08:37;9.80;99.90
35129;DHT22;21301;43.626;10.580;2022-12-18T00:11:05;9.80;99.90
35129;DHT22;21301;43.626;10.580;2022-12-18T00:13:31;9.80;99.90
35129;DHT22;21301;43.626;10.580;2022-12-18T00:16:04;9.80;99.90
35129;DHT22;21301;43.626;10.580;2022-12-18T00:18:31;9.80;99.90
35129;DHT22;21301;43.626;10.580;2022-12-18T00:21:00;9.80;99.90
35129;DHT22;21301;43.626;10.580;2022-12-18T00:23:27;9.80;99.90
35129;DHT22;21301;43.626;10.580;2022-12-18T00:25:53;9.80;99.90
35129;DHT22;21301;43.626;10.580;2022-12-18T00:28:19;9.80;99.90
35129;DHT22;21301;43.626;10.580;2022-12-18T00:30:45;9.70;99.90
35129;DHT22;21301;43.626;10.580;2022-12-18T00:33:11;9.70;99.90
35129;DHT22;21301;43.626;10.580;2022-12-18T00:35:37;9.80;99.90
35129;DHT22;21301;43.626;10.580;2022-12-18T00:38:03;9.70;99.90
35129;DHT22;21301;43.626;10.580;2022-12-18T00:40:30;9.80;99.90
35129;DHT22;21301;43.626;10.580;2022-12-18T00:42:56;9.80;99.90
35129;DHT22;21301;43.626;10.580;2022-12-18T00:45:27;9.90;99.90
35129;DHT22;21301;43.626;10.580;2022-12-18T00:47:54;9.80;99.90
35129;DHT22;21301;43.626;10.580;2022-12-18T00:50:21;9.60;99.90
35129;DHT22;21301;43.626;10.580;2022-12-18T00:52:47;9.60;99.90
35129;DHT22;21301;43.626;10.580;2022-12-18T00:55:14;9.60;99.90
35129;DHT22;21301;43.626;10.580;2022-12-18T00:57:40;9.70;99.90
35129;DHT22;21301;43.626;10.580;2022-12-18T01:00:07;9.90;99.90
35129;DHT22;21301;43.626;10.580;2022-12-18T01:02:34;9.90;99.90
35129;DHT22;21301;43.626;10.580;2022-12-18T01:05:01;9.80;99.90
35129;DHT22;21301;43.626;10.580;2022-12-18T01:07:27;9.70;99.90
35129;DHT22;21301;43.626;10.580;2022-12-18T01:09:53;9.70;99.90
35129;DHT22;21301;43.626;10.580;2022-12-18T01:12:19;9.50;99.90
35129;DHT22;21301;43.626;10.580;2022-12-18T01:14:45;9.40;99.90
35129;DHT22;21301;43.626;10.580;2022-12-18T01:17:11;9.30;99.90
35129;DHT22;21301;43.626;10.580;2022-12-18T01:19:36;9.40;99.90
35129;DHT22;21301;43.626;10.580;2022-12-18T01:22:03;9.30;99.90
35129;DHT22;21301;43.626;10.580;2022-12-18T01:24:28;9.30;99.90
35129;DHT22;21301;43.626;10.580;2022-12-18T01:26:54;9.30;99.90
35129;DHT22;21301;43.626;10.580;2022-12-18T01:29:22;9.30;99.90
35129;DHT22;21301;43.626;10.580;2022-12-18T01:31:48;9.30;99.90
35129;DHT22;21301;43.626;10.580;2022-12-18T01:34:14;9.20;99.90
35129;DHT22;21301;43.626;10.580;2022-12-18T01:36:41;9.20;99.90
35129;DHT22;21301;43.626;10.580;2022-12-18T01:39:11;9.20;99.90
35129;DHT22;21301;43.626;10.580;2022-12-18T01:41:37;9.20;99.90
35129;DHT22;21301;43.626;10.580;2022-12-18T01:47:47;9.20;99.90
35129;DHT22;21301;43.626;10.580;2022-12-18T01:52:45;9.10;99.90
35129;DHT22;21301;43.626;10.580;2022-12-18T01:55:12;9.10;99.90
35129;DHT22;21301;43.626;10.580;2022-12-18T01:57:40;9.00;99.90
35129;DHT22;21301;43.626;10.580;2022-12-18T02:00:13;9.00;99.90
35129;DHT22;21301;43.626;10.580;2022-12-18T02:02:41;9.00;99.90
35129;DHT22;21301;43.626;10.580;2022-12-18T02:05:08;8.90;99.90
35129;DHT22;21301;43.626;10.580;2022-12-18T02:10:24;9.10;99.90
35129;DHT22;21301;43.626;10.580;2022-12-18T02:16:16;9.20;99.90
35129;DHT22;21301;43.626;10.580;2022-12-18T02:18:49;9.20;99.90
35129;DHT22;21301;43.626;10.580;2022-12-18T02:24:39;9.40;99.90
35129;DHT22;21301;43.626;10.580;2022-12-18T02:27:09;9.40;99.90
35129;DHT22;21301;43.626;10.580;2022-12-18T02:32:14;9.30;99.90
35129;DHT22;21301;43.626;10.580;2022-12-18T02:34:43;9.20;99.90
35129;DHT22;21301;43.626;10.580;2022-12-18T02:37:16;9.20;99.90
35129;DHT22;21301;43.626;10.580;2022-12-18T02:39:45;9.20;99.90
35129;DHT22;21301;43.626;10.580;2022-12-18T02:42:13;9.10;99.90
35129;DHT22;21301;43.626;10.580;2022-12-18T02:44:50;9.00;99.90
35129;DHT22;21301;43.626;10.580;2022-12-18T02:47:29;8.90;99.90
35129;DHT22;21301;43.626;10.580;2022-12-18T02:50:31;9.00;99.90
35129;DHT22;21301;43.626;10.580;2022-12-18T02:53:27;8.90;99.90
35129;DHT22;21301;43.626;10.580;2022-12-18T02:56:15;8.90;99.90
35129;DHT22;21301;43.626;10.580;2022-12-18T03:02:02;8.90;99.90
35129;DHT22;21301;43.626;10.580;2022-12-18T03:04:54;8.90;99.90
35129;DHT22;21301;43.626;10.580;2022-12-18T03:07:37;8.90;99.90
35129;DHT22;21301;43.626;10.580;2022-12-18T03:10:11;8.90;99.90
35129;DHT22;21301;43.626;10.580;2022-12-18T03:12:45;9.00;99.90
35129;DHT22;21301;43.626;10.580;2022-12-18T03:17:46;8.90;99.90
35129;DHT22;21301;43.626;10.580;2022-12-18T03:20:19;8.80;99.90
35129;DHT22;21301;43.626;10.580;2022-12-18T03:22:55;8.90;99.90
35129;DHT22;21301;43.626;10.580;2022-12-18T03:25:25;9.00;99.90
35129;DHT22;21301;43.626;10.580;2022-12-18T03:27:56;8.90;99.90
35129;DHT22;21301;43.626;10.580;2022-12-18T03:30:25;8.90;99.90
35129;DHT22;21301;43.626;10.580;2022-12-18T03:33:16;8.90;99.90
35129;DHT22;21301;43.626;10.580;2022-12-18T03:35:47;8.90;99.90
35129;DHT22;21301;43.626;10.580;2022-12-18T03:38:13;8.90;99.90
35129;DHT22;21301;43.626;10.580;2022-12-18T03:41:11;8.90;99.90
35129;DHT22;21301;43.626;10.580;2022-12-18T03:44:20;8.90;99.90
35129;DHT22;21301;43.626;10.580;2022-12-18T03:52:02;8.90;99.90
35129;DHT22;21301;43.626;10.580;2022-12-18T03:54:30;8.90;99.90
35129;DHT22;21301;43.626;10.580;2022-12-18T03:57:15;8.90;99.90
35129;DHT22;21301;43.626;10.580;2022-12-18T03:59:43;9.00;99.90
35129;DHT22;21301;43.626;10.580;2022-12-18T04:02:11;9.10;99.90
35129;DHT22;21301;43.626;10.580;2022-12-18T04:04:38;8.90;99.90
35129;DHT22;21301;43.626;10.580;2022-12-18T04:07:05;8.90;99.90
35129;DHT22;21301;43.626;10.580;2022-12-18T04:09:35;8.80;99.90
35129;DHT22;21301;43.626;10.580;2022-12-18T04:12:03;8.80;99.90
35129;DHT22;21301;43.626;10.580;2022-12-18T04:14:29;8.70;99.90
35129;DHT22;21301;43.626;10.580;2022-12-18T04:16:56;8.60;99.90
35129;DHT22;21301;43.626;10.580;2022-12-18T04:19:28;8.60;99.90
35129;DHT22;21301;43.626;10.580;2022-12-18T04:21:54;8.60;99.90
35129;DHT22;21301;43.626;10.580;2022-12-18T04:24:20;8.50;99.90
35129;DHT22;21301;43.626;10.580;2022-12-18T04:27:00;8.50;99.90
35129;DHT22;21301;43.626;10.580;2022-12-18T04:29:32;8.40;99.90
35129;DHT22;21301;43.626;10.580;2022-12-18T04:31:58;8.30;99.90
35129;DHT22;21301;43.626;10.580;2022-12-18T04:34:25;8.30;99.90
35129;DHT22;21301;43.626;10.580;2022-12-18T04:36:53;8.10;99.90
35129;DHT22;21301;43.626;10.580;2022-12-18T04:39:22;8.10;99.90
35129;DHT22;21301;43.626;10.580;2022-12-18T04:41:49;8.10;99.90
35129;DHT22;21301;43.626;10.580;2022-12-18T04:44:15;8.10;99.90
35129;DHT22;21301;43.626;10.580;2022-12-18T04:46:41;8.10;99.90
35129;DHT22;21301;43.626;10.580;2022-12-18T04:49:07;8.20;99.90
35129;DHT22;21301;43.626;10.580;2022-12-18T04:51:33;8.20;99.90
35129;DHT22;21301;43.626;10.580;2022-12-18T04:53:59;8.20;99.90
35129;DHT22;21301;43.626;10.580;2022-12-18T04:56:24;8.10;99.90
35129;DHT22;21301;43.626;10.580;2022-12-18T04:58:50;8.10;99.90
35129;DHT22;21301;43.626;10.580;2022-12-18T05:01:17;8.00;99.90
35129;DHT22;21301;43.626;10.580;2022-12-18T05:03:43;8.10;99.90
35129;DHT22;21301;43.626;10.580;2022-12-18T05:06:09;8.10;99.90
35129;DHT22;21301;43.626;10.580;2022-12-18T05:08:35;8.00;99.90
35129;DHT22;21301;43.626;10.580;2022-12-18T05:11:07;8.00;99.90
35129;DHT22;21301;43.626;10.580;2022-12-18T05:13:33;8.00;99.90
35129;DHT22;21301;43.626;10.580;2022-12-18T05:15:59;7.90;99.90
35129;DHT22;21301;43.626;10.580;2022-12-18T05:18:25;7.90;99.90
35129;DHT22;21301;43.626;10.580;2022-12-18T05:20:52;7.90;99.90
35129;DHT22;21301;43.626;10.580;2022-12-18T05:23:19;7.90;99.90
35129;DHT22;21301;43.626;10.580;2022-12-18T05:25:59;7.90;99.90
35129;DHT22;21301;43.626;10.580;2022-12-18T05:28:27;7.90;99.90
35129;DHT22;21301;43.626;10.580;2022-12-18T05:30:57;7.80;99.90
35129;DHT22;21301;43.626;10.580;2022-12-18T05:33:25;7.90;99.90
35129;DHT22;21301;43.626;10.580;2022-12-18T05:35:56;7.90;99.90
35129;DHT22;21301;43.626;10.580;2022-12-18T05:38:24;7.90;99.90
35129;DHT22;21301;43.626;10.580;2022-12-18T05:40:51;7.90;99.90
35129;DHT22;21301;43.626;10.580;2022-12-18T05:43:18;7.90;99.90
35129;DHT22;21301;43.626;10.580;2022-12-18T05:45:45;7.90;99.90
35129;DHT22;21301;43.626;10.580;2022-12-18T05:48:10;8.00;99.90
35129;DHT22;21301;43.626;10.580;2022-12-18T05:50:37;7.80;99.90
35129;DHT22;21301;43.626;10.580;2022-12-18T05:53:04;7.70;99.90
35129;DHT22;21301;43.626;10.580;2022-12-18T05:55:38;7.60;99.90
35129;DHT22;21301;43.626;10.580;2022-12-18T05:58:05;7.50;99.90
35129;DHT22;21301;43.626;10.580;2022-12-18T06:00:33;7.50;99.90
35129;DHT22;21301;43.626;10.580;2022-12-18T06:03:00;7.50;99.90
35129;DHT22;21301;43.626;10.580;2022-12-18T06:05:26;7.40;99.90
35129;DHT22;21301;43.626;10.580;2022-12-18T06:07:53;7.40;99.90
35129;DHT22;21301;43.626;10.580;2022-12-18T06:10:18;7.50;99.90
35129;DHT22;21301;43.626;10.580;2022-12-18T06:12:44;7.50;99.90
35129;DHT22;21301;43.626;10.580;2022-12-18T06:15:10;7.60;99.90
35129;DHT22;21301;43.626;10.580;2022-12-18T06:17:36;7.50;99.90
35129;DHT22;21301;43.626;10.580;2022-12-18T06:20:03;7.50;99.90
35129;DHT22;21301;43.626;10.580;2022-12-18T06:22:30;7.40;99.90
35129;DHT22;21301;43.626;10.580;2022-12-18T06:24:56;7.40;99.90
35129;DHT22;21301;43.626;10.580;2022-12-18T06:27:22;7.40;99.90
35129;DHT22;21301;43.626;10.580;2022-12-18T06:29:49;7.30;99.90
35129;DHT22;21301;43.626;10.580;2022-12-18T06:32:15;7.30;99.90
35129;DHT22;21301;43.626;10.580;2022-12-18T06:34:40;7.30;99.90
35129;DHT22;21301;43.626;10.580;2022-12-18T06:37:06;7.20;99.90
35129;DHT22;21301;43.626;10.580;2022-12-18T06:39:32;7.20;99.90
35129;DHT22;21301;43.626;10.580;2022-12-18T06:41:58;7.30;99.90
35129;DHT22;21301;43.626;10.580;2022-12-18T06:44:23;7.30;99.90
35129;DHT22;21301;43.626;10.580;2022-12-18T06:46:49;7.30;99.90
35129;DHT22;21301;43.626;10.580;2022-12-18T06:49:15;7.40;99.90
35129;DHT22;21301;43.626;10.580;2022-12-18T06:51:41;7.30;99.90
35129;DHT22;21301;43.626;10.580;2022-12-18T06:54:08;7.30;99.90
35129;DHT22;21301;43.626;10.580;2022-12-18T06:56:34;7.20;99.90
35129;DHT22;21301;43.626;10.580;2022-12-18T06:59:00;7.20;99.90
35129;DHT22;21301;43.626;10.580;2022-12-18T07:01:26;7.20;99.90
35129;DHT22;21301;43.626;10.580;2022-12-18T07:03:53;7.10;99.90
35129;DHT22;21301;43.626;10.580;2022-12-18T07:06:21;7.20;99.90
35129;DHT22;21301;43.626;10.580;2022-12-18T07:08:48;7.80;99.90
35129;DHT22;21301;43.626;10.580;2022-12-18T07:11:14;8.20;99.90
35129;DHT22;21301;43.626;10.580;2022-12-18T07:13:40;8.70;99.90
35129;DHT22;21301;43.626;10.580;2022-12-18T07:16:09;8.60;99.90
35129;DHT22;21301;43.626;10.580;2022-12-18T07:18:35;8.30;99.90
35129;DHT22;21301;43.626;10.580;2022-12-18T07:21:05;8.30;99.90
35129;DHT22;21301;43.626;10.580;2022-12-18T07:23:33;8.20;99.90
35129;DHT22;21301;43.626;10.580;2022-12-18T07:26:20;8.40;99.90
35129;DHT22;21301;43.626;10.580;2022-12-18T07:28:46;8.40;99.90
35129;DHT22;21301;43.626;10.580;2022-12-18T07:31:18;8.90;99.90
35129;DHT22;21301;43.626;10.580;2022-12-18T07:33:45;10.50;99.90
35129;DHT22;21301;43.626;10.580;2022-12-18T07:36:11;12.00;99.90
35129;DHT22;21301;43.626;10.580;2022-12-18T07:38:37;13.20;99.90
35129;DHT22;21301;43.626;10.580;2022-12-18T07:41:05;13.50;99.90
35129;DHT22;21301;43.626;10.580;2022-12-18T07:43:32;13.80;99.90
35129;DHT22;21301;43.626;10.580;2022-12-18T07:45:57;13.90;99.90
35129;DHT22;21301;43.626;10.580;2022-12-18T07:48:23;14.30;99.90
35129;DHT22;21301;43.626;10.580;2022-12-18T07:50:49;14.20;99.90
35129;DHT22;21301;43.626;10.580;2022-12-18T07:53:15;14.00;99.90
35129;DHT22;21301;43.626;10.580;2022-12-18T07:55:41;14.40;99.90
35129;DHT22;21301;43.626;10.580;2022-12-18T07:58:08;15.00;99.90
35129;DHT22;21301;43.626;10.580;2022-12-18T08:00:34;13.90;99.90
35129;DHT22;21301;43.626;10.580;2022-12-18T08:03:01;13.40;99.90
35129;DHT22;21301;43.626;10.580;2022-12-18T08:05:27;12.40;99.90
35129;DHT22;21301;43.626;10.580;2022-12-18T08:07:53;12.40;99.90
35129;DHT22;21301;43.626;10.580;2022-12-18T08:10:20;11.50;99.90
35129;DHT22;21301;43.626;10.580;2022-12-18T08:12:49;12.80;99.90
35129;DHT22;21301;43.626;10.580;2022-12-18T08:15:15;13.40;99.90
35129;DHT22;21301;43.626;10.580;2022-12-18T08:17:40;14.60;99.90
35129;DHT22;21301;43.626;10.580;2022-12-18T08:20:07;15.40;99.90
35129;DHT22;21301;43.626;10.580;2022-12-18T08:22:34;16.30;99.90
35129;DHT22;21301;43.626;10.580;2022-12-18T08:25:01;17.30;99.90
35129;DHT22;21301;43.626;10.580;2022-12-18T08:27:27;18.00;99.90
35129;DHT22;21301;43.626;10.580;2022-12-18T08:29:54;18.70;99.90
35129;DHT22;21301;43.626;10.580;2022-12-18T08:32:20;19.30;99.90
35129;DHT22;21301;43.626;10.580;2022-12-18T08:34:46;19.10;99.90
35129;DHT22;21301;43.626;10.580;2022-12-18T08:37:12;19.40;99.90
35129;DHT22;21301;43.626;10.580;2022-12-18T08:39:38;18.90;99.90
35129;DHT22;21301;43.626;10.580;2022-12-18T08:42:03;17.50;99.90
35129;DHT22;21301;43.626;10.580;2022-12-18T08:44:48;16.80;99.90
35129;DHT22;21301;43.626;10.580;2022-12-18T08:47:13;15.70;99.90
35129;DHT22;21301;43.626;10.580;2022-12-18T08:49:39;15.80;99.90
35129;DHT22;21301;43.626;10.580;2022-12-18T08:52:06;15.40;99.90
35129;DHT22;21301;43.626;10.580;2022-12-18T08:54:31;14.90;99.90
35129;DHT22;21301;43.626;10.580;2022-12-18T08:56:57;14.50;99.90
35129;DHT22;21301;43.626;10.580;2022-12-18T08:59:23;14.50;99.90
35129;DHT22;21301;43.626;10.580;2022-12-18T09:01:49;14.40;99.90
35129;DHT22;21301;43.626;10.580;2022-12-18T09:04:15;14.50;99.90
35129;DHT22;21301;43.626;10.580;2022-12-18T09:06:41;14.40;99.90
35129;DHT22;21301;43.626;10.580;2022-12-18T09:09:07;14.30;99.90
35129;DHT22;21301;43.626;10.580;2022-12-18T09:11:33;14.40;99.90
35129;DHT22;21301;43.626;10.580;2022-12-18T09:14:00;14.20;99.90
35129;DHT22;21301;43.626;10.580;2022-12-18T09:16:28;14.20;99.90
35129;DHT22;21301;43.626;10.580;2022-12-18T09:18:58;14.20;99.90
35129;DHT22;21301;43.626;10.580;2022-12-18T09:21:30;14.30;99.90
35129;DHT22;21301;43.626;10.580;2022-12-18T09:23:56;14.40;99.90
35129;DHT22;21301;43.626;10.580;2022-12-18T09:26:23;14.30;99.90
35129;DHT22;21301;43.626;10.580;2022-12-18T09:28:50;14.20;99.90
35129;DHT22;21301;43.626;10.580;2022-12-18T09:31:17;14.30;99.90
35129;DHT22;21301;43.626;10.580;2022-12-18T09:33:44;14.30;99.90
35129;DHT22;21301;43.626;10.580;2022-12-18T09:36:13;14.10;99.90
35129;DHT22;21301;43.626;10.580;2022-12-18T09:38:39;13.90;99.90
35129;DHT22;21301;43.626;10.580;2022-12-18T09:44:01;14.10;99.90
35129;DHT22;21301;43.626;10.580;2022-12-18T09:46:32;14.40;99.90
35129;DHT22;21301;43.626;10.580;2022-12-18T09:49:02;14.70;99.90
35129;DHT22;21301;43.626;10.580;2022-12-18T09:51:37;15.10;99.90
35129;DHT22;21301;43.626;10.580;2022-12-18T09:54:12;15.00;99.90
35129;DHT22;21301;43.626;10.580;2022-12-18T09:56:41;15.00;99.90
35129;DHT22;21301;43.626;10.580;2022-12-18T10:01:43;15.00;99.90
35129;DHT22;21301;43.626;10.580;2022-12-18T10:04:09;15.00;99.90
35129;DHT22;21301;43.626;10.580;2022-12-18T10:06:43;14.90;99.90
35129;DHT22;21301;43.626;10.580;2022-12-18T10:09:27;15.00;99.90
35129;DHT22;21301;43.626;10.580;2022-12-18T10:14:43;14.90;99.90
35129;DHT22;21301;43.626;10.580;2022-12-18T10:17:18;14.90;99.90
35129;DHT22;21301;43.626;10.580;2022-12-18T10:20:00;14.90;99.90
35129;DHT22;21301;43.626;10.580;2022-12-18T10:22:54;14.90;99.90
35129;DHT22;21301;43.626;10.580;2022-12-18T10:25:39;14.80;99.90
35129;DHT22;21301;43.626;10.580;2022-12-18T10:28:11;14.60;99.90
35129;DHT22;21301;43.626;10.580;2022-12-18T10:30:39;14.70;99.90
35129;DHT22;21301;43.626;10.580;2022-12-18T10:33:08;14.60;99.90
35129;DHT22;21301;43.626;10.580;2022-12-18T10:35:35;14.90;99.90
35129;DHT22;21301;43.626;10.580;2022-12-18T10:38:28;14.80;99.90
35129;DHT22;21301;43.626;10.580;2022-12-18T10:43:35;14.90;99.90
35129;DHT22;21301;43.626;10.580;2022-12-18T10:46:12;15.20;99.90
35129;DHT22;21301;43.626;10.580;2022-12-18T10:49:00;15.30;99.90
35129;DHT22;21301;43.626;10.580;2022-12-18T10:51:34;15.40;99.90
35129;DHT22;21301;43.626;10.580;2022-12-18T10:54:33;15.20;99.90
35129;DHT22;21301;43.626;10.580;2022-12-18T10:57:31;15.50;99.90
35129;DHT22;21301;43.626;10.580;2022-12-18T10:59:59;15.30;99.90
35129;DHT22;21301;43.626;10.580;2022-12-18T11:02:34;15.20;99.90
35129;DHT22;21301;43.626;10.580;2022-12-18T11:05:00;15.20;99.90
35129;DHT22;21301;43.626;10.580;2022-12-18T11:07:49;15.30;99.90
35129;DHT22;21301;43.626;10.580;2022-12-18T11:10:17;15.40;99.90
35129;DHT22;21301;43.626;10.580;2022-12-18T11:12:43;15.30;99.90
35129;DHT22;21301;43.626;10.580;2022-12-18T11:15:28;15.30;99.90
35129;DHT22;21301;43.626;10.580;2022-12-18T11:17:55;15.40;99.90
35129;DHT22;21301;43.626;10.580;2022-12-18T11:20:39;15.50;99.90
35129;DHT22;21301;43.626;10.580;2022-12-18T11:23:12;15.70;99.90
35129;DHT22;21301;43.626;10.580;2022-12-18T11:25:39;15.50;99.90
35129;DHT22;21301;43.626;10.580;2022-12-18T11:28:08;15.50;99.90
35129;DHT22;21301;43.626;10.580;2022-12-18T11:31:12;15.50;99.90
35129;DHT22;21301;43.626;10.580;2022-12-18T11:33:41;15.60;99.90
35129;DHT22;21301;43.626;10.580;2022-12-18T11:36:09;15.70;99.90
35129;DHT22;21301;43.626;10.580;2022-12-18T11:38:39;16.10;99.90
35129;DHT22;21301;43.626;10.580;2022-12-18T11:44:26;16.00;99.90
35129;DHT22;21301;43.626;10.580;2022-12-18T11:47:03;15.90;99.90
35129;DHT22;21301;43.626;10.580;2022-12-18T11:49:34;15.90;99.90
35129;DHT22;21301;43.626;10.580;2022-12-18T11:52:12;15.80;99.90
35129;DHT22;21301;43.626;10.580;2022-12-18T11:54:41;15.80;99.90
35129;DHT22;21301;43.626;10.580;2022-12-18T12:00:18;15.70;99.90
35129;DHT22;21301;43.626;10.580;2022-12-18T12:03:17;15.80;99.90
35129;DHT22;21301;43.626;10.580;2022-12-18T12:11:31;15.60;99.90
35129;DHT22;21301;43.626;10.580;2022-12-18T12:25:51;15.80;99.90
35129;DHT22;21301;43.626;10.580;2022-12-18T12:31:40;15.60;99.90
35129;DHT22;21301;43.626;10.580;2022-12-18T12:37:22;15.70;99.90
35129;DHT22;21301;43.626;10.580;2022-12-18T12:39:52;15.70;99.90
35129;DHT22;21301;43.626;10.580;2022-12-18T12:42:34;15.80;99.90
35129;DHT22;21301;43.626;10.580;2022-12-18T12:45:34;15.70;99.90
35129;DHT22;21301;43.626;10.580;2022-12-18T12:48:02;15.80;99.90
35129;DHT22;21301;43.626;10.580;2022-12-18T12:50:33;15.70;99.90
35129;DHT22;21301;43.626;10.580;2022-12-18T12:53:01;15.90;99.90
35129;DHT22;21301;43.626;10.580;2022-12-18T12:55:32;16.00;99.90
35129;DHT22;21301;43.626;10.580;2022-12-18T12:58:31;15.80;99.90
35129;DHT22;21301;43.626;10.580;2022-12-18T13:01:10;15.70;99.90
35129;DHT22;21301;43.626;10.580;2022-12-18T13:07:05;15.60;99.90
35129;DHT22;21301;43.626;10.580;2022-12-18T13:09:23;15.60;99.90
35129;DHT22;21301;43.626;10.580;2022-12-18T13:11:49;15.50;99.90
35129;DHT22;21301;43.626;10.580;2022-12-18T13:14:39;15.60;99.90
35129;DHT22;21301;43.626;10.580;2022-12-18T13:20:10;15.50;99.90
35129;DHT22;21301;43.626;10.580;2022-12-18T13:22:38;15.50;99.90
35129;DHT22;21301;43.626;10.580;2022-12-18T13:38:33;15.40;99.90
35129;DHT22;21301;43.626;10.580;2022-12-18T13:43:50;15.20;99.90
35129;DHT22;21301;43.626;10.580;2022-12-18T13:46:41;15.20;99.90
35129;DHT22;21301;43.626;10.580;2022-12-18T13:51:43;15.30;99.90
35129;DHT22;21301;43.626;10.580;2022-12-18T13:54:29;15.30;99.90
35129;DHT22;21301;43.626;10.580;2022-12-18T13:56:58;15.30;99.90
35129;DHT22;21301;43.626;10.580;2022-12-18T13:59:25;15.30;99.90
35129;DHT22;21301;43.626;10.580;2022-12-18T14:01:55;15.20;99.90
35129;DHT22;21301;43.626;10.580;2022-12-18T14:04:33;15.10;99.90
35129;DHT22;21301;43.626;10.580;2022-12-18T14:07:15;15.10;99.90
35129;DHT22;21301;43.626;10.580;2022-12-18T14:09:44;15.10;99.90
35129;DHT22;21301;43.626;10.580;2022-12-18T14:12:17;15.00;99.90
35129;DHT22;21301;43.626;10.580;2022-12-18T14:15:03;15.00;99.90
35129;DHT22;21301;43.626;10.580;2022-12-18T14:17:31;14.90;99.90
35129;DHT22;21301;43.626;10.580;2022-12-18T14:19:57;14.90;99.90
35129;DHT22;21301;43.626;10.580;2022-12-18T14:22:25;14.90;99.90
35129;DHT22;21301;43.626;10.580;2022-12-18T14:25:15;14.80;99.90
35129;DHT22;21301;43.626;10.580;2022-12-18T14:27:44;14.80;99.90
35129;DHT22;21301;43.626;10.580;2022-12-18T14:30:39;14.80;99.90
35129;DHT22;21301;43.626;10.580;2022-12-18T14:33:32;14.80;99.90
35129;DHT22;21301;43.626;10.580;2022-12-18T14:36:04;14.70;99.90
35129;DHT22;21301;43.626;10.580;2022-12-18T14:43:24;14.60;99.90
35129;DHT22;21301;43.626;10.580;2022-12-18T14:45:51;14.60;99.90
35129;DHT22;21301;43.626;10.580;2022-12-18T14:48:32;14.70;99.90
35129;DHT22;21301;43.626;10.580;2022-12-18T14:51:13;14.60;99.90
35129;DHT22;21301;43.626;10.580;2022-12-18T14:53:43;14.50;99.90
35129;DHT22;21301;43.626;10.580;2022-12-18T14:56:24;14.50;99.90
35129;DHT22;21301;43.626;10.580;2022-12-18T14:58:53;14.40;99.90
35129;DHT22;21301;43.626;10.580;2022-12-18T15:01:29;14.30;99.90
35129;DHT22;21301;43.626;10.580;2022-12-18T15:03:57;14.30;99.90
35129;DHT22;21301;43.626;10.580;2022-12-18T15:06:33;14.20;99.90
35129;DHT22;21301;43.626;10.580;2022-12-18T15:09:05;14.10;99.90
35129;DHT22;21301;43.626;10.580;2022-12-18T15:11:46;14.00;99.90
35129;DHT22;21301;43.626;10.580;2022-12-18T15:14:42;14.00;99.90
35129;DHT22;21301;43.626;10.580;2022-12-18T15:17:21;13.90;99.90
35129;DHT22;21301;43.626;10.580;2022-12-18T15:19:50;13.80;99.90
35129;DHT22;21301;43.626;10.580;2022-12-18T15:22:19;13.70;99.90
35129;DHT22;21301;43.626;10.580;2022-12-18T15:24:45;13.60;99.90
35129;DHT22;21301;43.626;10.580;2022-12-18T15:27:35;13.50;99.90
35129;DHT22;21301;43.626;10.580;2022-12-18T15:32:39;13.40;99.90
35129;DHT22;21301;43.626;10.580;2022-12-18T15:37:37;13.20;99.90
35129;DHT22;21301;43.626;10.580;2022-12-18T15:40:03;13.10;99.90
35129;DHT22;21301;43.626;10.580;2022-12-18T15:42:29;13.00;99.90
35129;DHT22;21301;43.626;10.580;2022-12-18T15:45:14;12.90;99.90
35129;DHT22;21301;43.626;10.580;2022-12-18T15:47:41;12.80;99.90
35129;DHT22;21301;43.626;10.580;2022-12-18T15:50:10;12.80;99.90
35129;DHT22;21301;43.626;10.580;2022-12-18T15:52:44;12.70;99.90
35129;DHT22;21301;43.626;10.580;2022-12-18T15:55:16;12.70;99.90
35129;DHT22;21301;43.626;10.580;2022-12-18T15:58:01;12.60;99.90
35129;DHT22;21301;43.626;10.580;2022-12-18T16:00:27;12.60;99.90
35129;DHT22;21301;43.626;10.580;2022-12-18T16:02:53;12.60;99.90
35129;DHT22;21301;43.626;10.580;2022-12-18T16:05:20;12.60;99.90
35129;DHT22;21301;43.626;10.580;2022-12-18T16:07:47;12.60;99.90
35129;DHT22;21301;43.626;10.580;2022-12-18T16:10:13;12.60;99.90
35129;DHT22;21301;43.626;10.580;2022-12-18T16:12:40;12.50;99.90
35129;DHT22;21301;43.626;10.580;2022-12-18T16:15:07;12.40;99.90
35129;DHT22;21301;43.626;10.580;2022-12-18T16:17:33;12.40;99.90
35129;DHT22;21301;43.626;10.580;2022-12-18T16:19:59;12.40;99.90
35129;DHT22;21301;43.626;10.580;2022-12-18T16:22:27;12.30;99.90
35129;DHT22;21301;43.626;10.580;2022-12-18T16:24:55;12.20;99.90
35129;DHT22;21301;43.626;10.580;2022-12-18T16:27:22;12.20;99.90
35129;DHT22;21301;43.626;10.580;2022-12-18T16:29:49;12.10;99.90
35129;DHT22;21301;43.626;10.580;2022-12-18T16:32:20;12.10;99.90
35129;DHT22;21301;43.626;10.580;2022-12-18T16:34:46;12.00;99.90
35129;DHT22;21301;43.626;10.580;2022-12-18T16:37:14;12.00;99.90
35129;DHT22;21301;43.626;10.580;2022-12-18T16:39:41;12.00;99.90
35129;DHT22;21301;43.626;10.580;2022-12-18T16:42:25;11.90;99.90
35129;DHT22;21301;43.626;10.580;2022-12-18T16:44:52;11.90;99.90
35129;DHT22;21301;43.626;10.580;2022-12-18T16:47:18;11.80;99.90
35129;DHT22;21301;43.626;10.580;2022-12-18T16:49:45;11.80;99.90
35129;DHT22;21301;43.626;10.580;2022-12-18T16:52:11;11.80;99.90
35129;DHT22;21301;43.626;10.580;2022-12-18T16:54:37;11.70;99.90
35129;DHT22;21301;43.626;10.580;2022-12-18T16:57:03;11.70;99.90
35129;DHT22;21301;43.626;10.580;2022-12-18T16:59:30;11.70;99.90
35129;DHT22;21301;43.626;10.580;2022-12-18T17:01:56;11.60;99.90
35129;DHT22;21301;43.626;10.580;2022-12-18T17:04:22;11.40;99.90
35129;DHT22;21301;43.626;10.580;2022-12-18T17:06:48;11.40;99.90
35129;DHT22;21301;43.626;10.580;2022-12-18T17:09:18;11.30;99.90
35129;DHT22;21301;43.626;10.580;2022-12-18T17:11:53;11.20;99.90
35129;DHT22;21301;43.626;10.580;2022-12-18T17:14:22;11.20;99.90
35129;DHT22;21301;43.626;10.580;2022-12-18T17:16:48;11.10;99.90
35129;DHT22;21301;43.626;10.580;2022-12-18T17:19:14;11.10;99.90
35129;DHT22;21301;43.626;10.580;2022-12-18T17:21:42;11.00;99.90
35129;DHT22;21301;43.626;10.580;2022-12-18T17:24:09;11.00;99.90
35129;DHT22;21301;43.626;10.580;2022-12-18T17:26:36;10.90;99.90
35129;DHT22;21301;43.626;10.580;2022-12-18T17:29:02;10.90;99.90